createdAt,value
2022-08-20T00:01:03.189Z,4.70
2022-08-20T00:03:32.411Z,6.13
2022-08-20T00:06:07.618Z,5.30
2022-08-20T00:08:35.850Z,6.35
2022-08-20T00:11:03.620Z,5.10
2022-08-20T00:13:35.293Z,8.13
2022-08-20T00:16:05.786Z,6.53
2022-08-20T00:18:35.692Z,9.50
2022-08-20T00:21:02.201Z,8.32
2022-08-20T00:23:28.714Z,7.25
2022-08-20T00:25:55.294Z,7.95
2022-08-20T00:28:21.844Z,9.35
2022-08-20T00:30:48.882Z,8.82
2022-08-20T00:33:21.478Z,8.57
2022-08-20T00:35:51.829Z,11.40
2022-08-20T00:38:18.746Z,9.65
2022-08-20T00:40:54.472Z,12.13
2022-08-20T00:43:27.886Z,9.50
2022-08-20T00:45:57.218Z,9.07
2022-08-20T00:48:25.886Z,11.55
2022-08-20T00:50:53.955Z,12.50
2022-08-20T00:53:21.798Z,10.50
2022-08-20T00:56:00.662Z,9.65
2022-08-20T00:58:38.874Z,12.00
2022-08-20T01:01:07.532Z,10.00
2022-08-20T01:03:34.331Z,11.07
2022-08-20T01:06:00.928Z,10.57
2022-08-20T01:08:27.740Z,8.30
2022-08-20T01:11:08.135Z,9.68
2022-08-20T01:13:35.841Z,6.95
2022-08-20T01:16:03.969Z,8.95
2022-08-20T01:18:31.238Z,13.07
2022-08-20T01:21:03.740Z,10.70
2022-08-20T01:23:39.389Z,15.20
2022-08-20T01:26:28.690Z,10.27
2022-08-20T01:29:04.644Z,8.50
2022-08-20T01:31:33.959Z,9.77
2022-08-20T01:34:02.274Z,10.77
2022-08-20T01:36:46.134Z,11.55
2022-08-20T01:39:18.591Z,8.60
2022-08-20T01:42:23.330Z,12.77
2022-08-20T01:47:31.611Z,7.45
2022-08-20T01:50:16.375Z,8.98
2022-08-20T01:52:50.656Z,10.82
2022-08-20T01:55:17.751Z,17.50
2022-08-20T01:57:44.607Z,13.40
2022-08-20T02:00:19.591Z,11.63
2022-08-20T02:02:46.962Z,12.07
2022-08-20T02:05:13.609Z,14.10
2022-08-20T02:07:40.566Z,10.60
2022-08-20T02:10:09.912Z,13.13
2022-08-20T02:12:44.209Z,12.43
2022-08-20T02:15:11.341Z,12.88
2022-08-20T02:17:39.306Z,15.38
2022-08-20T02:20:39.375Z,14.23
2022-08-20T02:23:06.525Z,15.48
2022-08-20T02:25:35.975Z,15.27
2022-08-20T02:28:05.664Z,14.10
2022-08-20T02:30:44.331Z,11.95
2022-08-20T02:33:14.421Z,9.02
2022-08-20T02:35:42.940Z,11.00
2022-08-20T02:38:12.982Z,13.40
2022-08-20T02:40:40.345Z,11.88
2022-08-20T02:43:06.871Z,11.68
2022-08-20T02:45:43.593Z,17.75
2022-08-20T02:48:15.513Z,12.50
2022-08-20T02:50:43.964Z,11.68
2022-08-20T02:53:10.582Z,15.57
2022-08-20T02:55:37.142Z,9.23
2022-08-20T02:58:03.672Z,14.70
2022-08-20T03:00:32.104Z,11.02
2022-08-20T03:03:05.335Z,10.30
2022-08-20T03:05:31.861Z,12.95
2022-08-20T03:07:58.490Z,11.23
2022-08-20T03:13:12.432Z,13.38
2022-08-20T03:18:29.437Z,12.73
2022-08-20T03:20:56.049Z,14.18
2022-08-20T03:23:22.835Z,11.80
2022-08-20T03:25:49.844Z,13.75
2022-08-20T03:28:16.543Z,14.00
2022-08-20T03:30:43.863Z,14.30
2022-08-20T03:33:10.784Z,13.40
2022-08-20T03:35:38.733Z,11.32
2022-08-20T03:38:11.341Z,13.43
2022-08-20T03:40:38.874Z,11.10
2022-08-20T03:43:08.643Z,15.02
2022-08-20T03:45:37.202Z,12.85
2022-08-20T03:48:05.505Z,16.05
2022-08-20T03:50:32.286Z,12.43
2022-08-20T03:53:00.062Z,15.80
2022-08-20T03:55:28.903Z,15.85
2022-08-20T03:57:58.643Z,16.20
2022-08-20T04:00:47.617Z,18.63
2022-08-20T04:03:14.362Z,15.38
2022-08-20T04:05:41.621Z,13.55
2022-08-20T04:08:10.991Z,11.55
2022-08-20T04:13:19.291Z,14.70
2022-08-20T04:15:53.057Z,20.67
2022-08-20T04:18:24.280Z,12.07
2022-08-20T04:20:52.898Z,13.48
2022-08-20T04:23:21.123Z,17.17
2022-08-20T04:25:48.982Z,12.20
2022-08-20T04:28:28.918Z,10.48
2022-08-20T04:30:58.235Z,11.20
2022-08-20T04:33:34.059Z,15.38
2022-08-20T04:36:12.798Z,18.45
2022-08-20T04:38:49.271Z,12.27
2022-08-20T04:41:21.088Z,12.10
2022-08-20T04:43:51.550Z,14.00
2022-08-20T04:46:18.136Z,13.52
2022-08-20T04:48:48.705Z,11.93
2022-08-20T04:51:16.316Z,13.20
2022-08-20T04:53:43.108Z,13.45
2022-08-20T04:58:51.075Z,15.05
2022-08-20T05:01:17.893Z,16.33
2022-08-20T05:03:44.555Z,14.40
2022-08-20T05:06:12.353Z,12.80
2022-08-20T05:08:43.422Z,14.88
2022-08-20T05:13:55.217Z,12.30
2022-08-20T05:16:22.377Z,14.30
2022-08-20T05:18:52.273Z,14.48
2022-08-20T05:21:20.430Z,19.00
2022-08-20T05:23:46.991Z,14.10
2022-08-20T05:26:15.161Z,13.70
2022-08-20T05:28:57.327Z,14.55
2022-08-20T05:31:31.322Z,18.15
2022-08-20T05:34:09.319Z,18.35
2022-08-20T05:36:37.456Z,14.35
2022-08-20T05:39:04.040Z,15.05
2022-08-20T05:41:30.747Z,14.32
2022-08-20T05:44:01.506Z,15.23
2022-08-20T05:46:30.963Z,15.50
2022-08-20T05:48:59.794Z,13.18
2022-08-20T05:51:28.238Z,18.20
2022-08-20T05:53:55.164Z,12.23
2022-08-20T05:56:32.357Z,29.20
2022-08-20T05:59:04.532Z,17.77
2022-08-20T06:01:32.658Z,11.82
2022-08-20T06:04:18.047Z,10.90
2022-08-20T06:06:47.128Z,14.35
2022-08-20T06:09:31.099Z,15.13
2022-08-20T06:12:04.778Z,17.67
2022-08-20T06:14:32.321Z,17.17
2022-08-20T06:17:15.360Z,12.43
2022-08-20T06:19:44.521Z,12.15
2022-08-20T06:22:19.601Z,10.60
2022-08-20T06:24:53.366Z,13.02
2022-08-20T06:27:20.241Z,12.68
2022-08-20T06:29:47.514Z,8.57
2022-08-20T06:32:14.240Z,9.25
2022-08-20T06:34:50.233Z,8.75
2022-08-20T06:37:31.639Z,9.30
2022-08-20T06:40:06.090Z,10.98
2022-08-20T06:42:32.973Z,5.00
2022-08-20T06:45:00.509Z,8.45
2022-08-20T06:47:27.370Z,7.72
2022-08-20T06:49:54.072Z,8.50
2022-08-20T06:52:20.622Z,6.93
2022-08-20T06:55:08.619Z,6.07
2022-08-20T07:03:02.246Z,7.80
2022-08-20T07:05:30.423Z,10.25
2022-08-20T07:08:00.689Z,7.88
2022-08-20T07:10:28.560Z,8.65
2022-08-20T07:12:55.588Z,8.15
2022-08-20T07:15:25.800Z,7.40
2022-08-20T07:18:00.227Z,10.35
2022-08-20T07:20:28.488Z,6.55
2022-08-20T07:22:55.149Z,8.82
2022-08-20T07:25:23.072Z,7.30
2022-08-20T07:27:50.793Z,5.55
2022-08-20T07:30:56.197Z,7.90
2022-08-20T07:33:25.300Z,13.40
2022-08-20T07:35:58.104Z,8.05
2022-08-20T07:38:26.432Z,5.93
2022-08-20T07:41:02.746Z,13.25
2022-08-20T07:46:10.231Z,12.35
2022-08-20T07:48:41.827Z,9.05
2022-08-20T07:51:10.754Z,7.05
2022-08-20T07:53:38.981Z,6.00
2022-08-20T07:58:59.957Z,7.88
2022-08-20T08:01:30.697Z,7.47
2022-08-20T08:03:59.009Z,8.05
2022-08-20T08:06:29.538Z,7.10
2022-08-20T08:09:10.162Z,10.95
2022-08-20T08:11:44.974Z,9.23
2022-08-20T08:14:14.089Z,13.63
2022-08-20T08:19:21.770Z,8.82
2022-08-20T08:21:49.462Z,7.50
2022-08-20T08:24:21.664Z,10.32
2022-08-20T08:26:50.421Z,10.20
2022-08-20T08:29:17.232Z,7.10
2022-08-20T08:31:44.086Z,6.72
2022-08-20T08:34:11.459Z,9.32
2022-08-20T08:42:03.632Z,9.57
2022-08-20T08:44:34.742Z,6.85
2022-08-20T08:47:08.565Z,6.32
2022-08-20T08:49:37.984Z,4.88
2022-08-20T08:52:42.333Z,9.10
2022-08-20T08:55:12.248Z,11.50
2022-08-20T08:57:38.755Z,9.77
2022-08-20T09:00:11.973Z,7.40
2022-08-20T09:02:38.961Z,7.93
2022-08-20T09:05:15.075Z,6.80
2022-08-20T09:07:43.442Z,7.15
2022-08-20T09:10:09.954Z,4.93
2022-08-20T09:12:36.849Z,5.78
2022-08-20T09:15:03.686Z,4.57
2022-08-20T09:17:30.465Z,7.78
2022-08-20T09:19:57.028Z,6.40
2022-08-20T09:22:33.820Z,6.18
2022-08-20T09:25:01.459Z,7.25
2022-08-20T09:30:12.676Z,12.48
2022-08-20T09:32:41.283Z,9.82
2022-08-20T09:35:09.635Z,10.82
2022-08-20T09:40:20.989Z,9.43
2022-08-20T09:43:01.636Z,7.75
2022-08-20T09:53:35.995Z,8.77
2022-08-20T09:59:02.871Z,6.35
2022-08-20T10:01:29.729Z,8.13
2022-08-20T10:06:39.508Z,7.28
2022-08-20T10:09:06.337Z,6.53
2022-08-20T10:16:59.945Z,8.52
2022-08-20T10:22:07.633Z,7.47
2022-08-20T10:24:35.038Z,5.57
2022-08-20T10:27:02.092Z,6.22
2022-08-20T10:29:29.239Z,7.43
2022-08-20T10:31:57.028Z,7.07
2022-08-20T10:34:30.957Z,6.68
2022-08-20T10:36:59.022Z,7.47
2022-08-20T10:42:15.578Z,9.05
2022-08-20T10:44:42.555Z,11.73
2022-08-20T10:47:23.420Z,4.65
2022-08-20T10:49:51.883Z,7.13
2022-08-20T10:52:26.203Z,5.05
2022-08-20T10:54:53.415Z,6.45
2022-08-20T10:57:23.727Z,7.50
2022-08-20T10:59:51.653Z,6.10
2022-08-20T11:02:22.898Z,7.82
2022-08-20T11:04:50.091Z,7.38
2022-08-20T11:15:34.386Z,9.32
2022-08-20T11:20:41.659Z,4.88
2022-08-20T11:23:08.255Z,12.15
2022-08-20T11:30:56.033Z,7.53
2022-08-20T11:38:51.161Z,7.50
2022-08-20T11:41:17.643Z,6.75
2022-08-20T11:43:59.486Z,7.55
2022-08-20T11:46:34.945Z,9.35
2022-08-20T11:49:01.551Z,4.70
2022-08-20T11:51:28.077Z,6.82
2022-08-20T11:53:54.594Z,9.65
2022-08-20T11:56:21.801Z,8.88
2022-08-20T12:01:32.115Z,9.57
2022-08-20T12:03:58.786Z,4.85
2022-08-20T12:06:36.252Z,6.43
2022-08-20T12:09:03.063Z,6.93
2022-08-20T12:11:29.607Z,7.32
2022-08-20T12:13:56.990Z,5.72
2022-08-20T12:16:23.520Z,7.07
2022-08-20T12:21:32.438Z,5.40
2022-08-20T12:23:59.128Z,5.90
2022-08-20T12:26:25.891Z,4.82
2022-08-20T12:28:54.042Z,7.47
2022-08-20T12:31:20.575Z,7.25
2022-08-20T12:36:27.634Z,4.80
2022-08-20T12:44:15.886Z,6.55
2022-08-20T12:46:46.268Z,7.10
2022-08-20T12:49:12.775Z,9.45
2022-08-20T12:54:19.765Z,7.03
2022-08-20T12:56:48.790Z,7.05
2022-08-20T13:01:56.689Z,4.28
2022-08-20T13:04:23.475Z,5.93
2022-08-20T13:06:57.631Z,4.57
2022-08-20T13:22:43.535Z,3.90
2022-08-20T13:25:14.207Z,6.68
2022-08-20T13:27:42.156Z,3.15
2022-08-20T13:30:21.023Z,4.45
2022-08-20T13:32:47.566Z,6.25
2022-08-20T13:35:14.631Z,5.28
2022-08-20T13:37:42.244Z,5.72
2022-08-20T13:40:13.505Z,5.65
2022-08-20T13:42:40.067Z,5.35
2022-08-20T13:45:07.315Z,6.47
2022-08-20T13:53:10.118Z,7.00
2022-08-20T13:55:44.484Z,5.85
2022-08-20T14:00:53.249Z,4.95
2022-08-20T14:06:01.203Z,5.30
2022-08-20T14:11:06.990Z,4.35
2022-08-20T14:13:47.153Z,6.20
2022-08-20T14:16:27.607Z,2.85
2022-08-20T14:21:48.211Z,5.80
2022-08-20T14:26:55.118Z,4.85
2022-08-20T14:29:22.398Z,6.70
2022-08-20T14:31:48.937Z,5.65
2022-08-20T14:34:15.468Z,8.55
2022-08-20T14:36:41.981Z,5.57
2022-08-20T14:39:19.927Z,5.18
2022-08-20T14:41:46.968Z,6.95
2022-08-20T14:44:13.482Z,5.50
2022-08-20T14:46:40.007Z,4.45
2022-08-20T14:49:10.485Z,3.28
2022-08-20T14:51:38.844Z,4.25
2022-08-20T14:54:05.694Z,3.85
2022-08-20T14:56:36.033Z,3.47
2022-08-20T14:59:02.726Z,4.55
2022-08-20T15:01:29.383Z,5.32
2022-08-20T15:03:55.970Z,2.05
2022-08-20T15:06:23.531Z,5.53
2022-08-20T15:08:51.184Z,2.72
2022-08-20T15:11:25.399Z,2.95
2022-08-20T15:13:54.440Z,3.25
2022-08-20T15:16:20.973Z,7.80
2022-08-20T15:24:15.734Z,3.28
2022-08-20T15:26:46.535Z,1.85
2022-08-20T15:29:22.823Z,4.63
2022-08-20T15:37:23.526Z,4.95
2022-08-20T15:39:58.707Z,6.43
2022-08-20T15:42:25.297Z,5.18
2022-08-20T15:50:33.520Z,4.53
2022-08-20T15:59:18.645Z,3.63
2022-08-20T16:02:22.573Z,7.30
2022-08-20T16:08:10.551Z,4.85
2022-08-20T16:13:39.463Z,4.97
2022-08-20T16:16:14.450Z,5.10
2022-08-20T16:21:36.942Z,5.35
2022-08-20T16:27:05.866Z,3.40
2022-08-20T16:29:54.231Z,7.60
2022-08-20T16:32:42.364Z,5.07
2022-08-20T16:38:21.160Z,3.17
2022-08-20T16:40:51.871Z,3.45
2022-08-20T16:43:23.000Z,2.65
2022-08-20T16:48:45.869Z,8.82
2022-08-20T16:51:18.291Z,5.78
2022-08-20T16:53:44.911Z,2.92
2022-08-20T16:56:13.538Z,5.20
2022-08-20T17:01:33.248Z,6.57
2022-08-20T17:06:46.815Z,5.72
2022-08-20T17:09:20.193Z,4.72
2022-08-20T17:17:40.885Z,4.80
2022-08-20T17:20:20.086Z,3.25
2022-08-20T17:22:53.387Z,4.53
2022-08-20T17:25:32.225Z,4.28
2022-08-20T17:30:51.154Z,5.28
2022-08-20T17:33:39.265Z,3.42
2022-08-20T17:38:55.300Z,4.65
2022-08-20T17:44:41.627Z,2.55
2022-08-20T17:47:16.185Z,3.83
2022-08-20T17:50:01.830Z,2.20
2022-08-20T17:55:30.892Z,5.82
2022-08-20T17:58:00.879Z,4.20
2022-08-20T18:00:28.507Z,3.30
2022-08-20T18:02:59.511Z,6.15
2022-08-20T18:08:21.057Z,3.10
2022-08-20T18:10:55.833Z,4.28
2022-08-20T18:13:51.433Z,5.45
2022-08-20T18:16:31.101Z,3.50
2022-08-20T18:22:12.247Z,6.90
2022-08-20T18:24:43.053Z,2.47
2022-08-20T18:35:45.856Z,2.33
2022-08-20T18:38:21.837Z,5.40
2022-08-20T18:43:30.506Z,5.50
2022-08-20T18:46:19.883Z,2.60
2022-08-20T18:48:54.591Z,4.18
2022-08-20T18:51:35.561Z,5.25
2022-08-20T18:54:02.662Z,5.18
2022-08-20T18:59:25.461Z,6.78
2022-08-20T19:01:53.875Z,5.97
2022-08-20T19:04:26.663Z,5.72
2022-08-20T19:07:02.484Z,6.40
2022-08-20T19:09:41.196Z,5.43
2022-08-20T19:12:35.068Z,5.82
2022-08-20T19:15:03.450Z,4.07
2022-08-20T19:17:52.275Z,6.82
2022-08-20T19:20:22.002Z,5.13
2022-08-20T19:22:50.460Z,5.40
2022-08-20T19:25:34.392Z,5.72
2022-08-20T19:28:29.577Z,5.28
2022-08-20T19:31:04.829Z,6.00
2022-08-20T19:36:28.198Z,7.45
2022-08-20T19:39:07.655Z,5.38
2022-08-20T19:41:41.166Z,5.07
2022-08-20T19:44:15.588Z,6.80
2022-08-20T19:46:46.093Z,6.47
2022-08-20T19:49:16.424Z,5.68
2022-08-20T19:55:03.869Z,4.68
2022-08-20T19:57:30.872Z,5.05
2022-08-20T20:02:46.731Z,8.40
2022-08-20T20:05:13.373Z,7.25
2022-08-20T20:07:43.138Z,5.43
2022-08-20T20:10:11.951Z,8.20
2022-08-20T20:12:42.896Z,8.18
2022-08-20T20:15:09.814Z,8.77
2022-08-20T20:17:36.692Z,6.25
2022-08-20T20:20:30.696Z,5.70
2022-08-20T20:23:25.345Z,8.98
2022-08-20T20:26:01.681Z,6.65
2022-08-20T20:28:43.288Z,3.97
2022-08-20T20:33:56.177Z,7.07
2022-08-20T20:36:37.927Z,8.90
2022-08-20T20:39:11.219Z,13.70
2022-08-20T20:41:52.646Z,6.15
2022-08-20T20:44:20.867Z,5.90
2022-08-20T20:52:50.498Z,5.25
2022-08-20T20:55:23.990Z,13.40
2022-08-20T20:57:51.006Z,8.88
2022-08-20T21:00:19.733Z,5.38
2022-08-20T21:03:00.293Z,5.85
2022-08-20T21:05:30.356Z,8.27
2022-08-20T21:08:03.202Z,5.80
2022-08-20T21:10:35.280Z,8.00
2022-08-20T21:13:04.949Z,9.63
2022-08-20T21:15:39.608Z,6.63
2022-08-20T21:18:07.971Z,8.38
2022-08-20T21:23:13.461Z,6.00
2022-08-20T21:25:40.532Z,7.60
2022-08-20T21:28:07.235Z,6.35
2022-08-20T21:30:33.860Z,6.07
2022-08-20T21:38:21.378Z,8.52
2022-08-20T21:40:47.971Z,5.82
2022-08-20T21:43:14.785Z,5.03
2022-08-20T21:48:22.077Z,7.97
2022-08-20T21:50:48.902Z,13.55
2022-08-20T22:01:22.054Z,6.57
2022-08-20T22:03:51.923Z,6.70
2022-08-20T22:08:59.045Z,8.45
2022-08-20T22:11:26.050Z,8.82
2022-08-20T22:13:52.551Z,12.68
2022-08-20T22:16:20.670Z,6.80
2022-08-20T22:18:49.938Z,8.57
2022-08-20T22:21:25.675Z,5.53
2022-08-20T22:24:02.667Z,6.55
2022-08-20T22:29:19.606Z,9.13
2022-08-20T22:31:46.258Z,10.68
2022-08-20T22:34:14.965Z,8.32
2022-08-20T22:39:25.610Z,8.23
2022-08-20T22:44:39.641Z,8.95
2022-08-20T22:47:11.149Z,11.18
2022-08-20T22:49:39.814Z,8.82
2022-08-20T22:54:47.069Z,8.85
2022-08-20T22:57:14.618Z,10.10
2022-08-20T22:59:53.168Z,10.27
2022-08-20T23:07:49.577Z,11.10
2022-08-20T23:10:19.041Z,6.32
2022-08-20T23:15:27.687Z,12.27
2022-08-20T23:18:01.029Z,14.18
2022-08-20T23:20:27.589Z,8.77
2022-08-20T23:22:54.778Z,10.68
2022-08-20T23:25:21.752Z,10.57
2022-08-20T23:27:50.797Z,8.65
2022-08-20T23:30:19.943Z,10.27
2022-08-20T23:32:46.641Z,9.70
2022-08-20T23:35:13.627Z,7.55
2022-08-20T23:37:50.125Z,13.20
2022-08-20T23:43:00.209Z,6.22
2022-08-20T23:50:48.825Z,7.05
2022-08-20T23:53:18.847Z,11.02
2022-08-20T23:55:49.234Z,6.13
2022-08-20T23:58:24.475Z,13.65
